sensor_id;sensor_type;location;lat;lon;timestamp;P1;durP1;ratioP1;P2;durP2;ratioP2
14021;SDS011;7086;48.116;11.580;2023-05-07T00:02:04;3.00;;;2.53;;
14021;SDS011;7086;48.116;11.580;2023-05-07T00:04:30;3.10;;;2.80;;
14021;SDS011;7086;48.116;11.580;2023-05-07T00:07:01;3.38;;;3.08;;
14021;SDS011;7086;48.116;11.580;2023-05-07T00:09:28;3.30;;;3.10;;
14021;SDS011;7086;48.116;11.580;2023-05-07T00:11:55;7.13;;;3.75;;
14021;SDS011;7086;48.116;11.580;2023-05-07T00:14:22;3.72;;;3.35;;
14021;SDS011;7086;48.116;11.580;2023-05-07T00:16:49;3.47;;;3.17;;
14021;SDS011;7086;48.116;11.580;2023-05-07T00:19:17;2.90;;;2.70;;
14021;SDS011;7086;48.116;11.580;2023-05-07T00:21:44;4.05;;;3.75;;
14021;SDS011;7086;48.116;11.580;2023-05-07T00:24:11;3.65;;;3.45;;
14021;SDS011;7086;48.116;11.580;2023-05-07T00:26:38;3.72;;;3.53;;
14021;SDS011;7086;48.116;11.580;2023-05-07T00:29:04;3.00;;;2.80;;
14021;SDS011;7086;48.116;11.580;2023-05-07T00:31:31;3.17;;;2.97;;
14021;SDS011;7086;48.116;11.580;2023-05-07T00:33:58;3.30;;;3.00;;
14021;SDS011;7086;48.116;11.580;2023-05-07T00:36:26;3.42;;;3.22;;
14021;SDS011;7086;48.116;11.580;2023-05-07T00:38:54;3.05;;;2.63;;
14021;SDS011;7086;48.116;11.580;2023-05-07T00:41:21;3.85;;;3.63;;
14021;SDS011;7086;48.116;11.580;2023-05-07T00:43:48;5.40;;;3.70;;
14021;SDS011;7086;48.116;11.580;2023-05-07T00:46:16;3.85;;;3.50;;
14021;SDS011;7086;48.116;11.580;2023-05-07T00:48:43;3.65;;;3.38;;
14021;SDS011;7086;48.116;11.580;2023-05-07T00:51:11;4.07;;;3.30;;
14021;SDS011;7086;48.116;11.580;2023-05-07T00:53:39;3.83;;;3.45;;
14021;SDS011;7086;48.116;11.580;2023-05-07T00:56:06;4.78;;;4.35;;
14021;SDS011;7086;48.116;11.580;2023-05-07T00:58:33;4.60;;;3.53;;
14021;SDS011;7086;48.116;11.580;2023-05-07T01:01:00;3.83;;;3.55;;
14021;SDS011;7086;48.116;11.580;2023-05-07T01:03:28;3.60;;;3.28;;
14021;SDS011;7086;48.116;11.580;2023-05-07T01:05:55;3.47;;;3.28;;
14021;SDS011;7086;48.116;11.580;2023-05-07T01:08:23;3.40;;;3.10;;
14021;SDS011;7086;48.116;11.580;2023-05-07T01:10:54;3.90;;;3.00;;
14021;SDS011;7086;48.116;11.580;2023-05-07T01:13:22;3.72;;;3.22;;
14021;SDS011;7086;48.116;11.580;2023-05-07T01:15:50;3.42;;;3.17;;
14021;SDS011;7086;48.116;11.580;2023-05-07T01:18:17;4.80;;;3.00;;
14021;SDS011;7086;48.116;11.580;2023-05-07T01:20:44;3.58;;;3.08;;
14021;SDS011;7086;48.116;11.580;2023-05-07T01:23:13;4.38;;;3.13;;
14021;SDS011;7086;48.116;11.580;2023-05-07T01:25:40;2.97;;;2.78;;
14021;SDS011;7086;48.116;11.580;2023-05-07T01:28:07;3.30;;;3.10;;
14021;SDS011;7086;48.116;11.580;2023-05-07T01:30:34;4.88;;;3.40;;
14021;SDS011;7086;48.116;11.580;2023-05-07T01:33:02;3.78;;;3.30;;
14021;SDS011;7086;48.116;11.580;2023-05-07T01:35:34;3.45;;;3.15;;
14021;SDS011;7086;48.116;11.580;2023-05-07T01:38:04;3.53;;;3.33;;
14021;SDS011;7086;48.116;11.580;2023-05-07T01:40:33;3.45;;;3.15;;
14021;SDS011;7086;48.116;11.580;2023-05-07T01:43:00;3.50;;;3.30;;
14021;SDS011;7086;48.116;11.580;2023-05-07T01:45:28;3.33;;;3.00;;
14021;SDS011;7086;48.116;11.580;2023-05-07T01:47:56;3.22;;;2.67;;
14021;SDS011;7086;48.116;11.580;2023-05-07T01:50:24;3.10;;;2.90;;
14021;SDS011;7086;48.116;11.580;2023-05-07T01:52:52;3.55;;;3.25;;
14021;SDS011;7086;48.116;11.580;2023-05-07T01:55:19;4.50;;;3.15;;
14021;SDS011;7086;48.116;11.580;2023-05-07T01:57:47;3.40;;;3.20;;
14021;SDS011;7086;48.116;11.580;2023-05-07T02:00:14;4.90;;;3.40;;
14021;SDS011;7086;48.116;11.580;2023-05-07T02:02:42;4.95;;;3.33;;
14021;SDS011;7086;48.116;11.580;2023-05-07T02:05:09;3.63;;;3.38;;
14021;SDS011;7086;48.116;11.580;2023-05-07T02:07:36;3.33;;;3.00;;
14021;SDS011;7086;48.116;11.580;2023-05-07T02:10:03;4.95;;;3.35;;
14021;SDS011;7086;48.116;11.580;2023-05-07T02:12:30;3.85;;;3.60;;
14021;SDS011;7086;48.116;11.580;2023-05-07T02:14:58;3.63;;;3.33;;
14021;SDS011;7086;48.116;11.580;2023-05-07T02:17:25;3.20;;;3.00;;
14021;SDS011;7086;48.116;11.580;2023-05-07T02:19:52;3.50;;;3.28;;
14021;SDS011;7086;48.116;11.580;2023-05-07T02:22:18;4.72;;;3.28;;
14021;SDS011;7086;48.116;11.580;2023-05-07T02:24:45;3.38;;;3.08;;
14021;SDS011;7086;48.116;11.580;2023-05-07T02:27:12;3.80;;;3.03;;
14021;SDS011;7086;48.116;11.580;2023-05-07T02:29:39;3.50;;;3.20;;
14021;SDS011;7086;48.116;11.580;2023-05-07T02:32:07;3.15;;;2.95;;
14021;SDS011;7086;48.116;11.580;2023-05-07T02:34:34;3.72;;;3.38;;
14021;SDS011;7086;48.116;11.580;2023-05-07T02:37:00;3.42;;;3.15;;
14021;SDS011;7086;48.116;11.580;2023-05-07T02:39:27;3.08;;;2.83;;
14021;SDS011;7086;48.116;11.580;2023-05-07T02:41:54;4.30;;;3.42;;
14021;SDS011;7086;48.116;11.580;2023-05-07T02:44:21;4.07;;;3.17;;
14021;SDS011;7086;48.116;11.580;2023-05-07T02:46:48;2.90;;;2.70;;
14021;SDS011;7086;48.116;11.580;2023-05-07T02:49:16;4.82;;;3.30;;
14021;SDS011;7086;48.116;11.580;2023-05-07T02:51:43;3.20;;;3.00;;
14021;SDS011;7086;48.116;11.580;2023-05-07T02:54:09;2.72;;;2.63;;
14021;SDS011;7086;48.116;11.580;2023-05-07T02:56:36;4.47;;;2.78;;
14021;SDS011;7086;48.116;11.580;2023-05-07T02:59:03;3.20;;;2.60;;
14021;SDS011;7086;48.116;11.580;2023-05-07T03:01:30;4.03;;;2.95;;
14021;SDS011;7086;48.116;11.580;2023-05-07T03:03:56;2.67;;;2.47;;
14021;SDS011;7086;48.116;11.580;2023-05-07T03:06:25;3.13;;;2.92;;
14021;SDS011;7086;48.116;11.580;2023-05-07T03:08:52;3.05;;;2.75;;
14021;SDS011;7086;48.116;11.580;2023-05-07T03:11:18;3.20;;;2.90;;
14021;SDS011;7086;48.116;11.580;2023-05-07T03:13:45;3.22;;;2.92;;
14021;SDS011;7086;48.116;11.580;2023-05-07T03:16:14;2.80;;;2.42;;
14021;SDS011;7086;48.116;11.580;2023-05-07T03:18:41;2.90;;;2.70;;
14021;SDS011;7086;48.116;11.580;2023-05-07T03:21:07;5.07;;;3.13;;
14021;SDS011;7086;48.116;11.580;2023-05-07T03:23:35;5.90;;;3.38;;
14021;SDS011;7086;48.116;11.580;2023-05-07T03:26:02;2.75;;;2.55;;
14021;SDS011;7086;48.116;11.580;2023-05-07T03:28:29;2.67;;;2.47;;
14021;SDS011;7086;48.116;11.580;2023-05-07T03:30:56;4.35;;;2.65;;
14021;SDS011;7086;48.116;11.580;2023-05-07T03:33:23;2.67;;;2.58;;
14021;SDS011;7086;48.116;11.580;2023-05-07T03:35:50;2.97;;;2.78;;
14021;SDS011;7086;48.116;11.580;2023-05-07T03:38:17;3.33;;;3.05;;
14021;SDS011;7086;48.116;11.580;2023-05-07T03:40:45;2.50;;;2.28;;
14021;SDS011;7086;48.116;11.580;2023-05-07T03:43:12;2.35;;;2.15;;
14021;SDS011;7086;48.116;11.580;2023-05-07T03:45:38;2.40;;;2.30;;
14021;SDS011;7086;48.116;11.580;2023-05-07T03:48:05;3.33;;;2.50;;
14021;SDS011;7086;48.116;11.580;2023-05-07T03:50:32;2.80;;;2.60;;
14021;SDS011;7086;48.116;11.580;2023-05-07T03:52:59;3.08;;;2.47;;
14021;SDS011;7086;48.116;11.580;2023-05-07T03:55:27;2.60;;;2.47;;
14021;SDS011;7086;48.116;11.580;2023-05-07T03:57:55;2.92;;;2.70;;
14021;SDS011;7086;48.116;11.580;2023-05-07T04:00:22;2.75;;;2.55;;
14021;SDS011;7086;48.116;11.580;2023-05-07T04:02:49;2.95;;;2.75;;
14021;SDS011;7086;48.116;11.580;2023-05-07T04:05:16;3.20;;;2.70;;
14021;SDS011;7086;48.116;11.580;2023-05-07T04:07:43;3.20;;;2.92;;
14021;SDS011;7086;48.116;11.580;2023-05-07T04:10:10;2.58;;;2.38;;
14021;SDS011;7086;48.116;11.580;2023-05-07T04:12:38;2.50;;;2.30;;
14021;SDS011;7086;48.116;11.580;2023-05-07T04:15:07;3.13;;;3.03;;
14021;SDS011;7086;48.116;11.580;2023-05-07T04:17:34;2.22;;;2.13;;
14021;SDS011;7086;48.116;11.580;2023-05-07T04:20:01;2.35;;;2.17;;
14021;SDS011;7086;48.116;11.580;2023-05-07T04:22:29;3.05;;;2.30;;
14021;SDS011;7086;48.116;11.580;2023-05-07T04:24:55;3.05;;;2.85;;
14021;SDS011;7086;48.116;11.580;2023-05-07T04:27:22;2.47;;;2.38;;
14021;SDS011;7086;48.116;11.580;2023-05-07T04:29:49;2.95;;;2.70;;
14021;SDS011;7086;48.116;11.580;2023-05-07T04:32:18;2.63;;;2.42;;
14021;SDS011;7086;48.116;11.580;2023-05-07T04:34:44;2.88;;;2.35;;
14021;SDS011;7086;48.116;11.580;2023-05-07T04:37:11;2.97;;;2.67;;
14021;SDS011;7086;48.116;11.580;2023-05-07T04:39:38;2.60;;;2.40;;
14021;SDS011;7086;48.116;11.580;2023-05-07T04:42:05;2.22;;;2.13;;
14021;SDS011;7086;48.116;11.580;2023-05-07T04:44:33;3.20;;;2.08;;
14021;SDS011;7086;48.116;11.580;2023-05-07T04:47:02;2.55;;;2.35;;
14021;SDS011;7086;48.116;11.580;2023-05-07T04:49:30;3.13;;;2.28;;
14021;SDS011;7086;48.116;11.580;2023-05-07T04:51:57;3.30;;;3.10;;
14021;SDS011;7086;48.116;11.580;2023-05-07T04:54:23;2.70;;;2.50;;
14021;SDS011;7086;48.116;11.580;2023-05-07T04:56:50;2.72;;;2.53;;
14021;SDS011;7086;48.116;11.580;2023-05-07T04:59:17;3.65;;;3.35;;
14021;SDS011;7086;48.116;11.580;2023-05-07T05:01:43;4.03;;;3.78;;
14021;SDS011;7086;48.116;11.580;2023-05-07T05:04:10;3.40;;;3.15;;
14021;SDS011;7086;48.116;11.580;2023-05-07T05:06:39;5.70;;;5.18;;
14021;SDS011;7086;48.116;11.580;2023-05-07T05:09:06;3.35;;;3.05;;
14021;SDS011;7086;48.116;11.580;2023-05-07T05:11:33;3.00;;;2.80;;
14021;SDS011;7086;48.116;11.580;2023-05-07T05:13:59;3.53;;;2.42;;
14021;SDS011;7086;48.116;11.580;2023-05-07T05:16:27;4.90;;;4.50;;
14021;SDS011;7086;48.116;11.580;2023-05-07T05:18:54;4.25;;;3.65;;
14021;SDS011;7086;48.116;11.580;2023-05-07T05:21:20;4.25;;;2.60;;
14021;SDS011;7086;48.116;11.580;2023-05-07T05:23:49;2.60;;;2.50;;
14021;SDS011;7086;48.116;11.580;2023-05-07T05:26:15;2.45;;;2.35;;
14021;SDS011;7086;48.116;11.580;2023-05-07T05:28:42;2.65;;;2.47;;
14021;SDS011;7086;48.116;11.580;2023-05-07T05:31:09;3.67;;;2.60;;
14021;SDS011;7086;48.116;11.580;2023-05-07T05:33:36;4.30;;;3.15;;
14021;SDS011;7086;48.116;11.580;2023-05-07T05:36:03;2.40;;;2.30;;
14021;SDS011;7086;48.116;11.580;2023-05-07T05:38:31;3.42;;;2.40;;
14021;SDS011;7086;48.116;11.580;2023-05-07T05:40:59;2.40;;;2.30;;
14021;SDS011;7086;48.116;11.580;2023-05-07T05:43:26;2.30;;;2.20;;
14021;SDS011;7086;48.116;11.580;2023-05-07T05:45:52;2.40;;;2.30;;
14021;SDS011;7086;48.116;11.580;2023-05-07T05:48:19;2.70;;;2.50;;
14021;SDS011;7086;48.116;11.580;2023-05-07T05:50:46;2.63;;;2.50;;
14021;SDS011;7086;48.116;11.580;2023-05-07T05:53:13;2.65;;;2.45;;
14021;SDS011;7086;48.116;11.580;2023-05-07T05:55:40;2.58;;;2.40;;
14021;SDS011;7086;48.116;11.580;2023-05-07T05:58:10;3.22;;;2.88;;
14021;SDS011;7086;48.116;11.580;2023-05-07T06:00:37;2.33;;;2.10;;
14021;SDS011;7086;48.116;11.580;2023-05-07T06:03:04;2.17;;;2.08;;
14021;SDS011;7086;48.116;11.580;2023-05-07T06:05:30;1.77;;;1.77;;
14021;SDS011;7086;48.116;11.580;2023-05-07T06:07:57;2.33;;;2.13;;
14021;SDS011;7086;48.116;11.580;2023-05-07T06:10:24;2.17;;;2.08;;
14021;SDS011;7086;48.116;11.580;2023-05-07T06:12:52;1.80;;;1.70;;
14021;SDS011;7086;48.116;11.580;2023-05-07T06:15:20;3.92;;;2.05;;
14021;SDS011;7086;48.116;11.580;2023-05-07T06:17:47;2.03;;;1.90;;
14021;SDS011;7086;48.116;11.580;2023-05-07T06:20:14;1.98;;;1.88;;
14021;SDS011;7086;48.116;11.580;2023-05-07T06:22:41;4.05;;;3.75;;
14021;SDS011;7086;48.116;11.580;2023-05-07T06:25:08;2.20;;;2.10;;
14021;SDS011;7086;48.116;11.580;2023-05-07T06:27:35;2.10;;;1.95;;
14021;SDS011;7086;48.116;11.580;2023-05-07T06:30:02;2.30;;;1.50;;
14021;SDS011;7086;48.116;11.580;2023-05-07T06:32:30;1.58;;;1.42;;
14021;SDS011;7086;48.116;11.580;2023-05-07T06:34:57;4.72;;;4.35;;
14021;SDS011;7086;48.116;11.580;2023-05-07T06:37:24;3.20;;;3.00;;
14021;SDS011;7086;48.116;11.580;2023-05-07T06:39:51;3.05;;;2.75;;
14021;SDS011;7086;48.116;11.580;2023-05-07T06:42:18;2.20;;;2.10;;
14021;SDS011;7086;48.116;11.580;2023-05-07T06:44:45;2.08;;;1.98;;
14021;SDS011;7086;48.116;11.580;2023-05-07T06:47:12;2.00;;;1.90;;
14021;SDS011;7086;48.116;11.580;2023-05-07T06:49:40;1.50;;;1.40;;
14021;SDS011;7086;48.116;11.580;2023-05-07T06:52:07;1.50;;;1.50;;
14021;SDS011;7086;48.116;11.580;2023-05-07T06:54:34;1.52;;;1.48;;
14021;SDS011;7086;48.116;11.580;2023-05-07T06:57:00;1.30;;;1.30;;
14021;SDS011;7086;48.116;11.580;2023-05-07T06:59:27;2.08;;;1.75;;
14021;SDS011;7086;48.116;11.580;2023-05-07T07:01:54;2.22;;;2.03;;
14021;SDS011;7086;48.116;11.580;2023-05-07T07:04:21;2.22;;;2.13;;
14021;SDS011;7086;48.116;11.580;2023-05-07T07:06:50;2.08;;;1.80;;
14021;SDS011;7086;48.116;11.580;2023-05-07T07:09:18;1.98;;;1.70;;
14021;SDS011;7086;48.116;11.580;2023-05-07T07:11:45;3.20;;;1.73;;
14021;SDS011;7086;48.116;11.580;2023-05-07T07:14:11;1.45;;;1.30;;
14021;SDS011;7086;48.116;11.580;2023-05-07T07:16:39;1.60;;;1.52;;
14021;SDS011;7086;48.116;11.580;2023-05-07T07:19:06;1.70;;;1.60;;
14021;SDS011;7086;48.116;11.580;2023-05-07T07:21:32;1.40;;;1.30;;
14021;SDS011;7086;48.116;11.580;2023-05-07T07:24:01;1.60;;;1.45;;
14021;SDS011;7086;48.116;11.580;2023-05-07T07:26:27;1.48;;;1.45;;
14021;SDS011;7086;48.116;11.580;2023-05-07T07:28:54;2.80;;;2.60;;
14021;SDS011;7086;48.116;11.580;2023-05-07T07:31:21;2.00;;;1.90;;
14021;SDS011;7086;48.116;11.580;2023-05-07T07:33:48;1.77;;;1.67;;
14021;SDS011;7086;48.116;11.580;2023-05-07T07:36:15;1.25;;;1.15;;
14021;SDS011;7086;48.116;11.580;2023-05-07T07:38:42;1.75;;;1.48;;
14021;SDS011;7086;48.116;11.580;2023-05-07T07:41:10;1.40;;;1.38;;
14021;SDS011;7086;48.116;11.580;2023-05-07T07:43:37;1.33;;;1.10;;
14021;SDS011;7086;48.116;11.580;2023-05-07T07:46:05;1.55;;;1.20;;
14021;SDS011;7086;48.116;11.580;2023-05-07T07:48:33;1.20;;;1.10;;
14021;SDS011;7086;48.116;11.580;2023-05-07T07:50:59;1.83;;;1.60;;
14021;SDS011;7086;48.116;11.580;2023-05-07T07:53:26;1.60;;;1.50;;
14021;SDS011;7086;48.116;11.580;2023-05-07T07:55:53;2.15;;;1.48;;
14021;SDS011;7086;48.116;11.580;2023-05-07T07:58:22;2.53;;;2.33;;
14021;SDS011;7086;48.116;11.580;2023-05-07T08:00:50;3.08;;;2.78;;
14021;SDS011;7086;48.116;11.580;2023-05-07T08:03:21;2.25;;;2.15;;
14021;SDS011;7086;48.116;11.580;2023-05-07T08:05:50;2.58;;;2.38;;
14021;SDS011;7086;48.116;11.580;2023-05-07T08:08:18;2.75;;;2.55;;
14021;SDS011;7086;48.116;11.580;2023-05-07T08:10:45;1.92;;;1.80;;
14021;SDS011;7086;48.116;11.580;2023-05-07T08:13:15;1.52;;;1.42;;
14021;SDS011;7086;48.116;11.580;2023-05-07T08:15:43;1.40;;;1.30;;
14021;SDS011;7086;48.116;11.580;2023-05-07T08:18:10;1.50;;;1.40;;
14021;SDS011;7086;48.116;11.580;2023-05-07T08:20:37;1.70;;;1.30;;
14021;SDS011;7086;48.116;11.580;2023-05-07T08:23:04;1.40;;;1.30;;
14021;SDS011;7086;48.116;11.580;2023-05-07T08:25:32;1.50;;;1.40;;
14021;SDS011;7086;48.116;11.580;2023-05-07T08:28:00;2.17;;;1.23;;
14021;SDS011;7086;48.116;11.580;2023-05-07T08:30:28;1.33;;;1.15;;
14021;SDS011;7086;48.116;11.580;2023-05-07T08:35:39;2.45;;;1.30;;
14021;SDS011;7086;48.116;11.580;2023-05-07T08:38:20;1.10;;;1.10;;
14021;SDS011;7086;48.116;11.580;2023-05-07T08:41:03;1.95;;;1.55;;
14021;SDS011;7086;48.116;11.580;2023-05-07T08:43:32;1.48;;;1.38;;
14021;SDS011;7086;48.116;11.580;2023-05-07T08:46:00;0.98;;;0.98;;
14021;SDS011;7086;48.116;11.580;2023-05-07T08:48:31;1.15;;;1.15;;
14021;SDS011;7086;48.116;11.580;2023-05-07T08:50:59;2.10;;;1.92;;
14021;SDS011;7086;48.116;11.580;2023-05-07T08:53:32;1.05;;;1.05;;
14021;SDS011;7086;48.116;11.580;2023-05-07T08:56:00;1.08;;;1.00;;
14021;SDS011;7086;48.116;11.580;2023-05-07T08:58:28;1.35;;;1.00;;
14021;SDS011;7086;48.116;11.580;2023-05-07T09:00:56;1.42;;;0.95;;
14021;SDS011;7086;48.116;11.580;2023-05-07T09:03:25;1.05;;;1.05;;
14021;SDS011;7086;48.116;11.580;2023-05-07T09:05:54;0.82;;;0.82;;
14021;SDS011;7086;48.116;11.580;2023-05-07T09:08:24;0.88;;;0.88;;
14021;SDS011;7086;48.116;11.580;2023-05-07T09:10:52;1.08;;;1.02;;
14021;SDS011;7086;48.116;11.580;2023-05-07T09:13:23;1.48;;;1.00;;
14021;SDS011;7086;48.116;11.580;2023-05-07T09:15:52;1.02;;;0.98;;
14021;SDS011;7086;48.116;11.580;2023-05-07T09:18:25;1.20;;;1.20;;
14021;SDS011;7086;48.116;11.580;2023-05-07T09:20:53;2.10;;;1.85;;
14021;SDS011;7086;48.116;11.580;2023-05-07T09:23:21;1.40;;;1.30;;
14021;SDS011;7086;48.116;11.580;2023-05-07T09:25:48;1.73;;;1.63;;
14021;SDS011;7086;48.116;11.580;2023-05-07T09:28:15;3.92;;;3.67;;
14021;SDS011;7086;48.116;11.580;2023-05-07T09:30:42;2.03;;;1.92;;
14021;SDS011;7086;48.116;11.580;2023-05-07T09:33:09;1.33;;;1.30;;
14021;SDS011;7086;48.116;11.580;2023-05-07T09:35:35;1.13;;;1.13;;
14021;SDS011;7086;48.116;11.580;2023-05-07T09:38:05;2.40;;;2.20;;
14021;SDS011;7086;48.116;11.580;2023-05-07T09:40:32;2.60;;;2.40;;
14021;SDS011;7086;48.116;11.580;2023-05-07T09:43:08;1.83;;;1.73;;
14021;SDS011;7086;48.116;11.580;2023-05-07T09:45:36;1.40;;;1.30;;
14021;SDS011;7086;48.116;11.580;2023-05-07T09:48:05;4.60;;;2.28;;
14021;SDS011;7086;48.116;11.580;2023-05-07T09:50:35;2.10;;;2.00;;
14021;SDS011;7086;48.116;11.580;2023-05-07T09:53:08;4.60;;;3.65;;
14021;SDS011;7086;48.116;11.580;2023-05-07T09:55:36;2.55;;;2.42;;
14021;SDS011;7086;48.116;11.580;2023-05-07T09:58:04;1.50;;;1.40;;
14021;SDS011;7086;48.116;11.580;2023-05-07T10:00:34;1.55;;;1.50;;
14021;SDS011;7086;48.116;11.580;2023-05-07T10:03:01;1.25;;;1.23;;
14021;SDS011;7086;48.116;11.580;2023-05-07T10:05:31;1.27;;;1.15;;
14021;SDS011;7086;48.116;11.580;2023-05-07T10:07:58;1.35;;;1.30;;
14021;SDS011;7086;48.116;11.580;2023-05-07T10:10:29;2.25;;;2.05;;
14021;SDS011;7086;48.116;11.580;2023-05-07T10:12:57;1.70;;;1.60;;
14021;SDS011;7086;48.116;11.580;2023-05-07T10:15:23;1.58;;;1.48;;
14021;SDS011;7086;48.116;11.580;2023-05-07T10:17:51;0.98;;;0.85;;
14021;SDS011;7086;48.116;11.580;2023-05-07T10:20:20;1.52;;;1.42;;
14021;SDS011;7086;48.116;11.580;2023-05-07T10:22:47;1.90;;;1.80;;
14021;SDS011;7086;48.116;11.580;2023-05-07T10:25:17;1.95;;;1.85;;
14021;SDS011;7086;48.116;11.580;2023-05-07T10:27:50;2.00;;;1.90;;
14021;SDS011;7086;48.116;11.580;2023-05-07T10:30:22;2.88;;;2.03;;
14021;SDS011;7086;48.116;11.580;2023-05-07T10:32:56;1.50;;;1.40;;
14021;SDS011;7086;48.116;11.580;2023-05-07T10:35:31;1.67;;;1.40;;
14021;SDS011;7086;48.116;11.580;2023-05-07T10:38:02;1.77;;;1.65;;
14021;SDS011;7086;48.116;11.580;2023-05-07T10:40:30;1.58;;;1.52;;
14021;SDS011;7086;48.116;11.580;2023-05-07T10:42:58;1.80;;;1.70;;
14021;SDS011;7086;48.116;11.580;2023-05-07T10:45:26;3.17;;;2.95;;
14021;SDS011;7086;48.116;11.580;2023-05-07T10:48:07;2.20;;;2.10;;
14021;SDS011;7086;48.116;11.580;2023-05-07T10:50:36;2.20;;;2.10;;
14021;SDS011;7086;48.116;11.580;2023-05-07T10:53:22;5.30;;;4.30;;
14021;SDS011;7086;48.116;11.580;2023-05-07T11:02:08;2.10;;;2.00;;
14021;SDS011;7086;48.116;11.580;2023-05-07T11:04:39;1.10;;;0.93;;
14021;SDS011;7086;48.116;11.580;2023-05-07T11:07:25;1.60;;;1.33;;
14021;SDS011;7086;48.116;11.580;2023-05-07T11:10:02;1.63;;;1.33;;
14021;SDS011;7086;48.116;11.580;2023-05-07T11:12:49;1.80;;;1.70;;
14021;SDS011;7086;48.116;11.580;2023-05-07T11:15:41;2.35;;;1.27;;
14021;SDS011;7086;48.116;11.580;2023-05-07T11:18:09;1.55;;;1.42;;
14021;SDS011;7086;48.116;11.580;2023-05-07T11:20:53;2.17;;;1.85;;
14021;SDS011;7086;48.116;11.580;2023-05-07T11:26:24;2.22;;;2.05;;
14021;SDS011;7086;48.116;11.580;2023-05-07T11:28:51;1.90;;;1.80;;
14021;SDS011;7086;48.116;11.580;2023-05-07T11:31:27;1.70;;;1.60;;
14021;SDS011;7086;48.116;11.580;2023-05-07T11:33:55;2.38;;;2.28;;
14021;SDS011;7086;48.116;11.580;2023-05-07T11:36:22;5.82;;;2.00;;
14021;SDS011;7086;48.116;11.580;2023-05-07T11:38:51;2.10;;;2.00;;
14021;SDS011;7086;48.116;11.580;2023-05-07T11:41:18;3.42;;;1.90;;
14021;SDS011;7086;48.116;11.580;2023-05-07T11:43:58;2.53;;;2.10;;
14021;SDS011;7086;48.116;11.580;2023-05-07T11:46:28;3.05;;;2.85;;
14021;SDS011;7086;48.116;11.580;2023-05-07T11:48:55;2.28;;;2.17;;
14021;SDS011;7086;48.116;11.580;2023-05-07T11:51:23;2.20;;;2.00;;
14021;SDS011;7086;48.116;11.580;2023-05-07T11:53:52;2.00;;;1.90;;
14021;SDS011;7086;48.116;11.580;2023-05-07T11:56:19;2.47;;;2.30;;
14021;SDS011;7086;48.116;11.580;2023-05-07T11:58:52;2.28;;;2.03;;
14021;SDS011;7086;48.116;11.580;2023-05-07T12:01:19;2.20;;;2.10;;
14021;SDS011;7086;48.116;11.580;2023-05-07T12:03:47;3.05;;;2.85;;
14021;SDS011;7086;48.116;11.580;2023-05-07T12:06:15;2.80;;;2.60;;
14021;SDS011;7086;48.116;11.580;2023-05-07T12:08:43;2.58;;;2.38;;
14021;SDS011;7086;48.116;11.580;2023-05-07T12:11:12;2.05;;;1.70;;
14021;SDS011;7086;48.116;11.580;2023-05-07T12:13:41;2.53;;;2.00;;
14021;SDS011;7086;48.116;11.580;2023-05-07T12:16:09;2.55;;;1.80;;
14021;SDS011;7086;48.116;11.580;2023-05-07T12:18:36;1.58;;;1.48;;
14021;SDS011;7086;48.116;11.580;2023-05-07T12:21:06;1.48;;;1.45;;
14021;SDS011;7086;48.116;11.580;2023-05-07T12:23:36;2.35;;;2.10;;
14021;SDS011;7086;48.116;11.580;2023-05-07T12:26:04;3.90;;;2.13;;
14021;SDS011;7086;48.116;11.580;2023-05-07T12:28:35;1.80;;;1.70;;
14021;SDS011;7086;48.116;11.580;2023-05-07T12:31:03;1.80;;;1.70;;
14021;SDS011;7086;48.116;11.580;2023-05-07T12:33:31;1.67;;;1.58;;
14021;SDS011;7086;48.116;11.580;2023-05-07T12:35:58;2.05;;;1.95;;
14021;SDS011;7086;48.116;11.580;2023-05-07T12:38:33;2.17;;;1.65;;
14021;SDS011;7086;48.116;11.580;2023-05-07T12:41:01;1.90;;;1.63;;
14021;SDS011;7086;48.116;11.580;2023-05-07T12:43:29;1.70;;;1.60;;
14021;SDS011;7086;48.116;11.580;2023-05-07T12:45:56;1.85;;;1.70;;
14021;SDS011;7086;48.116;11.580;2023-05-07T12:48:24;1.60;;;1.50;;
14021;SDS011;7086;48.116;11.580;2023-05-07T12:50:52;1.58;;;1.48;;
14021;SDS011;7086;48.116;11.580;2023-05-07T12:53:20;1.67;;;1.65;;
14021;SDS011;7086;48.116;11.580;2023-05-07T12:55:50;1.67;;;1.58;;
14021;SDS011;7086;48.116;11.580;2023-05-07T12:58:19;1.73;;;1.60;;
14021;SDS011;7086;48.116;11.580;2023-05-07T13:00:47;3.08;;;1.40;;
14021;SDS011;7086;48.116;11.580;2023-05-07T13:03:22;1.77;;;1.67;;
14021;SDS011;7086;48.116;11.580;2023-05-07T13:05:50;2.90;;;1.50;;
14021;SDS011;7086;48.116;11.580;2023-05-07T13:08:26;1.65;;;1.10;;
14021;SDS011;7086;48.116;11.580;2023-05-07T13:10:55;1.55;;;1.52;;
14021;SDS011;7086;48.116;11.580;2023-05-07T13:13:22;1.55;;;1.45;;
14021;SDS011;7086;48.116;11.580;2023-05-07T13:15:50;1.38;;;1.27;;
14021;SDS011;7086;48.116;11.580;2023-05-07T13:18:17;1.48;;;1.10;;
14021;SDS011;7086;48.116;11.580;2023-05-07T13:20:43;1.42;;;1.33;;
14021;SDS011;7086;48.116;11.580;2023-05-07T13:23:10;0.98;;;0.90;;
14021;SDS011;7086;48.116;11.580;2023-05-07T13:25:37;2.40;;;1.30;;
14021;SDS011;7086;48.116;11.580;2023-05-07T13:28:05;1.67;;;0.90;;
14021;SDS011;7086;48.116;11.580;2023-05-07T13:30:32;2.15;;;1.50;;
14021;SDS011;7086;48.116;11.580;2023-05-07T13:32:59;2.25;;;2.05;;
14021;SDS011;7086;48.116;11.580;2023-05-07T13:35:26;2.78;;;2.58;;
14021;SDS011;7086;48.116;11.580;2023-05-07T13:37:53;1.50;;;1.45;;
14021;SDS011;7086;48.116;11.580;2023-05-07T13:40:21;2.22;;;1.50;;
14021;SDS011;7086;48.116;11.580;2023-05-07T13:42:48;1.50;;;1.40;;
14021;SDS011;7086;48.116;11.580;2023-05-07T13:45:17;1.45;;;1.35;;
14021;SDS011;7086;48.116;11.580;2023-05-07T13:47:44;1.20;;;1.10;;
14021;SDS011;7086;48.116;11.580;2023-05-07T13:50:12;2.55;;;2.35;;
14021;SDS011;7086;48.116;11.580;2023-05-07T13:52:40;1.70;;;1.60;;
14021;SDS011;7086;48.116;11.580;2023-05-07T13:55:08;1.73;;;1.58;;
14021;SDS011;7086;48.116;11.580;2023-05-07T13:57:36;3.78;;;3.47;;
14021;SDS011;7086;48.116;11.580;2023-05-07T14:00:03;2.60;;;2.22;;
14021;SDS011;7086;48.116;11.580;2023-05-07T14:02:33;3.83;;;3.53;;
14021;SDS011;7086;48.116;11.580;2023-05-07T14:05:00;2.88;;;2.30;;
14021;SDS011;7086;48.116;11.580;2023-05-07T14:07:26;1.60;;;1.50;;
14021;SDS011;7086;48.116;11.580;2023-05-07T14:09:53;1.58;;;1.48;;
14021;SDS011;7086;48.116;11.580;2023-05-07T14:12:21;2.63;;;2.20;;
14021;SDS011;7086;48.116;11.580;2023-05-07T14:14:47;1.98;;;1.77;;
14021;SDS011;7086;48.116;11.580;2023-05-07T14:17:15;1.65;;;1.55;;
14021;SDS011;7086;48.116;11.580;2023-05-07T14:19:43;2.17;;;1.60;;
14021;SDS011;7086;48.116;11.580;2023-05-07T14:22:10;5.78;;;5.25;;
14021;SDS011;7086;48.116;11.580;2023-05-07T14:24:37;1.98;;;1.88;;
14021;SDS011;7086;48.116;11.580;2023-05-07T14:27:04;1.88;;;1.77;;
14021;SDS011;7086;48.116;11.580;2023-05-07T14:29:31;1.50;;;1.40;;
14021;SDS011;7086;48.116;11.580;2023-05-07T14:32:00;1.73;;;1.63;;
14021;SDS011;7086;48.116;11.580;2023-05-07T14:34:27;2.45;;;1.15;;
14021;SDS011;7086;48.116;11.580;2023-05-07T14:36:55;1.10;;;1.10;;
14021;SDS011;7086;48.116;11.580;2023-05-07T14:39:22;3.20;;;1.83;;
14021;SDS011;7086;48.116;11.580;2023-05-07T14:41:49;1.80;;;1.70;;
14021;SDS011;7086;48.116;11.580;2023-05-07T14:44:15;1.48;;;1.38;;
14021;SDS011;7086;48.116;11.580;2023-05-07T14:46:42;1.00;;;1.00;;
14021;SDS011;7086;48.116;11.580;2023-05-07T14:49:09;1.48;;;1.38;;
14021;SDS011;7086;48.116;11.580;2023-05-07T14:51:41;1.60;;;1.55;;
14021;SDS011;7086;48.116;11.580;2023-05-07T14:54:10;2.13;;;1.75;;
14021;SDS011;7086;48.116;11.580;2023-05-07T14:56:37;1.73;;;1.73;;
14021;SDS011;7086;48.116;11.580;2023-05-07T14:59:04;1.70;;;1.45;;
14021;SDS011;7086;48.116;11.580;2023-05-07T15:01:31;2.50;;;2.10;;
14021;SDS011;7086;48.116;11.580;2023-05-07T15:03:58;1.67;;;1.58;;
14021;SDS011;7086;48.116;11.580;2023-05-07T15:06:25;1.65;;;1.55;;